Time;durP1;ratioP1;P1;durP2;ratioP2;P2;SDS_P1;SDS_P2;PMS_P1;PMS_P2;Temp;Humidity;BMP_temperature;BMP_pressure;BME280_temperature;BME280_humidity;BME280_pressure;Samples;Min_cycle;Max_cycle;Signal;HPM_P1;HPM_P2
2022/12/26 00:01:00;;;;;;;164.33;90.37;;;6.10;97.30;;;;;;5013425;28;20193;-92
2022/12/26 00:03:26;;;;;;;160.87;86.53;;;6.10;97.30;;;;;;5009521;28;20173;-93
2022/12/26 00:05:51;;;;;;;156.10;85.43;;;6.20;97.30;;;;;;5041823;28;20257;-91
2022/12/26 00:08:17;;;;;;;100.90;78.33;;;6.20;97.30;;;;;;5025090;28;20292;-90
2022/12/26 00:10:43;;;;;;;111.73;81.97;;;6.30;97.30;;;;;;5025748;28;20150;-90
2022/12/26 00:13:09;;;;;;;84.63;75.70;;;6.30;97.30;;;;;;5025483;28;20172;-88
2022/12/26 00:15:38;;;;;;;179.00;75.90;;;6.30;97.30;;;;;;5025500;28;20209;-90
2022/12/26 00:18:03;;;;;;;171.17;80.80;;;6.30;97.30;;;;;;5025453;28;20177;-91
2022/12/26 00:20:29;;;;;;;220.13;77.23;;;6.30;97.40;;;;;;5025545;28;20240;-91
2022/12/26 00:22:54;;;;;;;208.90;80.43;;;6.30;97.40;;;;;;5019097;28;20212;-92
2022/12/26 00:25:20;;;;;;;190.17;78.43;;;6.30;97.40;;;;;;5014814;28;20210;-93
2022/12/26 00:27:46;;;;;;;195.60;80.33;;;6.20;97.40;;;;;;5017164;28;20161;-93
2022/12/26 00:30:11;;;;;;;129.67;77.27;;;6.20;97.40;;;;;;5024934;28;20197;-90
2022/12/26 00:32:37;;;;;;;138.30;74.33;;;6.30;97.40;;;;;;5025157;28;20165;-92
2022/12/26 00:35:03;;;;;;;131.90;73.13;;;6.20;97.40;;;;;;5024494;28;20181;-88
2022/12/26 00:37:39;;;;;;;93.13;77.23;;;6.30;97.40;;;;;;5018940;28;20205;-92
2022/12/26 00:40:06;;;;;;;134.63;69.50;;;6.30;97.40;;;;;;5021684;28;20208;-94
2022/12/26 00:42:32;;;;;;;174.27;67.40;;;6.30;97.40;;;;;;5013416;28;20188;-93
2022/12/26 00:44:57;;;;;;;173.37;62.17;;;6.20;97.40;;;;;;5016466;28;20190;-92
2022/12/26 00:47:23;;;;;;;151.77;62.17;;;6.20;97.40;;;;;;5024622;28;20189;-92
2022/12/26 00:49:48;;;;;;;149.33;60.50;;;6.20;97.50;;;;;;5024845;28;20252;-91
2022/12/26 00:52:14;;;;;;;173.43;62.27;;;6.20;97.50;;;;;;5024895;28;20169;-91
2022/12/26 00:54:40;;;;;;;142.63;56.57;;;6.20;97.50;;;;;;5024817;28;20209;-90
2022/12/26 00:57:05;;;;;;;175.10;55.57;;;6.20;97.50;;;;;;5024884;28;20213;-92
2022/12/26 00:59:31;;;;;;;160.23;59.03;;;6.20;97.50;;;;;;5023732;28;20208;-93
2022/12/26 01:01:56;;;;;;;170.27;55.13;;;6.20;97.50;;;;;;5021528;28;20196;-91
2022/12/26 01:04:22;;;;;;;180.70;54.27;;;6.20;97.50;;;;;;5023633;28;20255;-93
2022/12/26 01:06:47;;;;;;;160.07;56.50;;;6.30;97.50;;;;;;5022932;28;20181;-92
2022/12/26 01:09:14;;;;;;;145.03;54.13;;;6.30;97.50;;;;;;5024160;28;20222;-93
2022/12/26 01:11:40;;;;;;;168.93;56.73;;;6.30;97.50;;;;;;5018878;28;20158;-92
2022/12/26 01:14:12;;;;;;;178.73;57.13;;;6.30;97.60;;;;;;5021685;28;20216;-92
2022/12/26 01:16:39;;;;;;;225.37;59.10;;;6.30;97.60;;;;;;5023897;28;20161;-93
2022/12/26 01:19:05;;;;;;;205.57;61.50;;;6.30;97.60;;;;;;5018624;28;20185;-93
2022/12/26 01:21:31;;;;;;;178.30;54.60;;;6.30;97.60;;;;;;5035427;28;20204;-93
2022/12/26 01:23:57;;;;;;;228.63;57.53;;;6.30;97.60;;;;;;5017769;28;20185;-93
2022/12/26 01:26:23;;;;;;;152.70;55.50;;;6.40;97.60;;;;;;5014858;28;20256;-93
2022/12/26 01:28:49;;;;;;;125.70;57.60;;;6.40;97.60;;;;;;5015446;28;20205;-93
2022/12/26 01:31:16;;;;;;;153.70;53.67;;;6.40;97.60;;;;;;5016106;28;20177;-93
2022/12/26 02:17:43;;;;;;;250.57;48.90;;;6.60;97.70;;;;;;5878428;22;20236;-92
2022/12/26 02:20:19;;;;;;;215.77;43.97;;;6.60;97.70;;;;;;5017471;28;20181;-91
2022/12/26 02:23:03;;;;;;;244.10;44.00;;;6.60;97.70;;;;;;5013453;28;20631;-90
2022/12/26 02:25:32;;;;;;;223.20;40.87;;;6.60;97.80;;;;;;5019113;28;20204;-92
2022/12/26 02:28:12;;;;;;;172.17;47.53;;;6.70;97.70;;;;;;5034098;28;20200;-92
2022/12/26 02:33:31;;;;;;;236.03;44.57;;;6.70;97.80;;;;;;1090945;22;20542;-91
2022/12/26 02:36:38;;;;;;;236.73;42.10;;;6.70;97.80;;;;;;5024989;28;20239;-93
2022/12/26 02:39:46;;;;;;;279.03;45.37;;;6.70;97.80;;;;;;5027722;28;20257;-93
2022/12/26 02:42:25;;;;;;;276.03;43.40;;;6.70;97.80;;;;;;5033624;28;20183;-94
2022/12/26 02:48:11;;;;;;;236.63;39.67;;;6.70;97.80;;;;;;5038962;28;20196;-94
2022/12/26 03:14:46;;;;;;;198.87;35.37;;;6.80;97.90;;;;;;5033467;28;20188;-93
2022/12/26 03:17:37;;;;;;;206.13;37.03;;;6.80;97.90;;;;;;5038109;28;20157;-92
2022/12/26 03:20:33;;;;;;;172.90;33.17;;;6.70;97.90;;;;;;5037244;28;20188;-92
2022/12/26 03:23:06;;;;;;;152.03;35.47;;;6.80;97.90;;;;;;5037223;28;20174;-93
2022/12/26 03:28:26;;;;;;;207.27;38.80;;;6.80;97.90;;;;;;5027472;28;20196;-94
2022/12/26 03:30:54;;;;;;;250.33;42.33;;;6.80;97.90;;;;;;5031861;28;20189;-93
2022/12/26 03:36:35;;;;;;;179.47;37.33;;;6.80;97.90;;;;;;5036586;28;20194;-94
2022/12/26 04:44:27;;;;;;;95.27;37.63;;;7.00;98.00;;;;;;4985313;28;20235;-91
2022/12/26 04:46:55;;;;;;;96.23;35.53;;;7.00;98.00;;;;;;4984024;28;20155;-94
2022/12/26 04:52:11;;;;;;;91.90;35.77;;;7.00;98.00;;;;;;5030552;28;20192;-93
2022/12/26 04:54:41;;;;;;;92.57;36.93;;;7.10;98.00;;;;;;5040309;28;20201;-92
2022/12/26 04:57:07;;;;;;;93.17;37.47;;;7.10;98.10;;;;;;5040615;28;20165;-91
2022/12/26 04:59:33;;;;;;;86.70;37.27;;;7.10;98.10;;;;;;5040260;28;20237;-91
2022/12/26 05:10:24;;;;;;;87.77;37.97;;;7.10;98.10;;;;;;5041265;28;20212;-93
2022/12/26 05:13:25;;;;;;;100.20;37.37;;;7.20;98.10;;;;;;5040736;28;20157;-92
2022/12/26 05:29:37;;;;;;;84.33;37.07;;;7.10;98.10;;;;;;5040123;28;20204;-92
2022/12/26 05:32:02;;;;;;;83.13;38.60;;;7.10;98.10;;;;;;5040124;28;20165;-91
2022/12/26 05:34:28;;;;;;;79.60;36.97;;;7.20;98.10;;;;;;5039759;28;20216;-93
2022/12/26 05:36:56;;;;;;;80.50;35.33;;;7.20;98.00;;;;;;5039866;28;20188;-92
2022/12/26 05:39:22;;;;;;;85.37;38.70;;;7.20;98.10;;;;;;5040213;28;20165;-92
2022/12/26 05:41:47;;;;;;;78.43;37.33;;;7.20;98.00;;;;;;5040099;28;20181;-91
2022/12/26 05:44:13;;;;;;;80.57;36.97;;;7.20;98.10;;;;;;5039842;28;20197;-92
2022/12/26 05:46:41;;;;;;;66.90;37.40;;;7.20;98.10;;;;;;5039945;28;20173;-92
2022/12/26 05:49:07;;;;;;;74.23;35.43;;;7.20;98.10;;;;;;5039074;28;20205;-93
2022/12/26 05:51:33;;;;;;;76.00;38.17;;;7.20;98.10;;;;;;5039599;28;20177;-91
2022/12/26 05:54:00;;;;;;;74.53;37.43;;;7.30;98.00;;;;;;5039862;28;20169;-92
2022/12/26 05:56:26;;;;;;;76.87;40.80;;;7.30;98.10;;;;;;5040427;28;20161;-92
2022/12/26 05:58:57;;;;;;;74.60;40.77;;;7.30;98.10;;;;;;5039291;28;20196;-92
2022/12/26 06:01:23;;;;;;;77.07;41.30;;;7.30;98.10;;;;;;5040013;28;20224;-92
2022/12/26 06:03:55;;;;;;;76.97;43.07;;;7.30;98.00;;;;;;5039465;28;20241;-92
2022/12/26 06:06:22;;;;;;;84.60;42.70;;;7.30;98.10;;;;;;5039802;28;20185;-91
2022/12/26 06:08:56;;;;;;;84.97;44.03;;;7.30;98.00;;;;;;5039549;28;20239;-92
2022/12/26 06:11:24;;;;;;;72.17;39.93;;;7.30;98.00;;;;;;5039744;28;20170;-91
2022/12/26 06:13:50;;;;;;;84.17;45.60;;;7.30;98.00;;;;;;5039592;28;20174;-92
2022/12/26 06:16:20;;;;;;;84.57;44.13;;;7.30;98.00;;;;;;5039601;28;20242;-91
2022/12/26 06:18:47;;;;;;;91.70;44.80;;;7.30;98.00;;;;;;5039579;28;20162;-91
2022/12/26 06:21:18;;;;;;;87.23;47.80;;;7.30;98.00;;;;;;5039528;28;20200;-91
2022/12/26 06:23:44;;;;;;;86.33;44.00;;;7.30;98.00;;;;;;5039207;28;20165;-90
2022/12/26 06:26:11;;;;;;;86.53;44.90;;;7.30;98.00;;;;;;5039267;28;20181;-91
2022/12/26 06:28:39;;;;;;;95.00;45.27;;;7.30;98.00;;;;;;5039185;28;20252;-90
2022/12/26 06:31:25;;;;;;;88.20;44.50;;;7.30;98.00;;;;;;5039244;28;20168;-93
2022/12/26 06:33:56;;;;;;;79.77;41.60;;;7.30;98.00;;;;;;5038287;28;20197;-92
2022/12/26 06:36:24;;;;;;;88.90;44.73;;;7.40;98.00;;;;;;5037162;28;20220;-93
2022/12/26 06:38:50;;;;;;;79.03;42.23;;;7.40;98.00;;;;;;5034812;28;20157;-93
2022/12/26 06:41:18;;;;;;;76.00;41.03;;;7.50;98.00;;;;;;5035328;28;20561;-93
2022/12/26 06:43:47;;;;;;;91.70;47.00;;;7.50;98.00;;;;;;5035856;28;20189;-93
2022/12/26 06:46:15;;;;;;;85.13;43.50;;;7.50;98.10;;;;;;5036165;28;20181;-93
2022/12/26 06:48:42;;;;;;;93.10;45.50;;;7.50;98.00;;;;;;5037846;28;20189;-92
2022/12/26 06:51:16;;;;;;;76.60;40.17;;;7.50;98.00;;;;;;5038313;28;20190;-93
2022/12/26 06:53:42;;;;;;;65.87;34.63;;;7.60;98.00;;;;;;5036706;28;20180;-93
2022/12/26 06:56:13;;;;;;;85.80;46.07;;;7.60;98.00;;;;;;5038018;28;20189;-91
2022/12/26 06:58:39;;;;;;;87.97;46.57;;;7.60;98.00;;;;;;5038801;28;20173;-91
2022/12/26 07:01:13;;;;;;;86.57;47.20;;;7.60;98.00;;;;;;5038771;28;20272;-92
2022/12/26 07:03:39;;;;;;;87.20;48.43;;;7.70;98.00;;;;;;5038587;28;20165;-93
2022/12/26 07:06:09;;;;;;;86.67;48.47;;;7.70;98.00;;;;;;5038754;28;20192;-90
2022/12/26 07:08:35;;;;;;;84.80;46.90;;;7.70;98.00;;;;;;5038237;28;20667;-93
2022/12/26 07:11:00;;;;;;;77.37;43.23;;;7.70;98.00;;;;;;5037299;28;20194;-93
2022/12/26 07:13:29;;;;;;;82.77;48.07;;;7.70;98.00;;;;;;5037749;28;20180;-91
2022/12/26 07:15:58;;;;;;;84.23;49.03;;;7.80;98.00;;;;;;5038334;28;20274;-93
2022/12/26 07:18:27;;;;;;;78.33;46.53;;;7.70;98.00;;;;;;5037015;28;20177;-93
2022/12/26 07:20:55;;;;;;;80.30;47.93;;;7.70;98.00;;;;;;5037660;28;20192;-93
2022/12/26 07:23:20;;;;;;;89.30;48.97;;;7.70;98.00;;;;;;5035551;28;20199;-92
2022/12/26 07:25:49;;;;;;;90.00;51.13;;;7.80;97.90;;;;;;5037612;28;20213;-91
2022/12/26 07:28:17;;;;;;;90.00;52.63;;;7.80;97.90;;;;;;5037588;28;20175;-92
2022/12/26 07:30:48;;;;;;;89.10;51.40;;;7.70;97.90;;;;;;5035460;28;20178;-93
2022/12/26 07:33:13;;;;;;;83.10;48.67;;;7.80;97.90;;;;;;5036469;28;20197;-92
2022/12/26 07:35:39;;;;;;;87.13;53.77;;;7.90;97.90;;;;;;5025586;28;20217;-93
2022/12/26 07:38:16;;;;;;;87.30;51.27;;;7.90;97.90;;;;;;5028023;28;20253;-93
2022/12/26 07:40:45;;;;;;;84.27;48.70;;;7.90;97.90;;;;;;5029447;28;20181;-92
2022/12/26 07:43:11;;;;;;;94.80;52.73;;;7.80;97.90;;;;;;5034654;28;20249;-93
2022/12/26 07:45:36;;;;;;;86.07;51.67;;;7.90;97.90;;;;;;5035726;28;20221;-91
2022/12/26 07:48:02;;;;;;;90.17;50.63;;;7.80;97.80;;;;;;5033151;28;20177;-93
2022/12/26 07:50:28;;;;;;;80.53;49.17;;;7.80;97.80;;;;;;5027750;28;20299;-93
2022/12/26 07:52:54;;;;;;;90.87;50.40;;;7.90;97.80;;;;;;5029359;28;20173;-91
2022/12/26 07:55:20;;;;;;;87.43;54.17;;;8.00;97.70;;;;;;5023143;28;20269;-92
2022/12/26 07:57:50;;;;;;;91.73;52.83;;;8.00;97.70;;;;;;5019088;28;20178;-92
2022/12/26 08:00:17;;;;;;;83.33;53.13;;;8.00;97.70;;;;;;5017794;28;20204;-92
2022/12/26 08:02:43;;;;;;;92.87;53.50;;;8.00;97.70;;;;;;5018755;28;20190;-91
2022/12/26 08:05:08;;;;;;;93.33;57.57;;;8.00;97.70;;;;;;5018788;28;20216;-92
2022/12/26 08:07:34;;;;;;;84.20;52.03;;;8.00;97.70;;;;;;5021014;28;20212;-93
2022/12/26 08:10:00;;;;;;;93.97;55.80;;;8.00;97.70;;;;;;5024189;28;20216;-93
2022/12/26 08:12:25;;;;;;;92.83;56.43;;;8.00;97.60;;;;;;5022671;28;20264;-93
2022/12/26 08:14:51;;;;;;;86.67;54.33;;;8.00;97.60;;;;;;5025894;28;20189;-93
2022/12/26 08:17:17;;;;;;;93.17;59.47;;;8.00;97.60;;;;;;5026016;28;20181;-93
2022/12/26 08:19:43;;;;;;;99.40;61.37;;;8.00;97.60;;;;;;5022782;28;20248;-93
2022/12/26 08:22:08;;;;;;;94.20;61.57;;;8.00;97.50;;;;;;5019207;28;20181;-92
2022/12/26 08:24:34;;;;;;;91.93;57.80;;;8.00;97.50;;;;;;5019770;28;20244;-92
2022/12/26 08:26:59;;;;;;;88.73;56.47;;;8.00;97.50;;;;;;5020985;28;20299;-93
2022/12/26 08:29:25;;;;;;;93.00;59.10;;;8.00;97.50;;;;;;5021131;28;20202;-92
2022/12/26 08:31:51;;;;;;;101.13;67.63;;;8.10;97.50;;;;;;5019487;28;20181;-92
2022/12/26 08:34:17;;;;;;;97.23;65.43;;;8.10;97.50;;;;;;5017412;28;20217;-92
2022/12/26 08:36:42;;;;;;;93.33;63.07;;;8.00;97.40;;;;;;5018602;28;20166;-92
2022/12/26 08:39:08;;;;;;;91.37;61.57;;;8.00;97.40;;;;;;5017238;28;20204;-92
2022/12/26 08:41:33;;;;;;;96.27;68.13;;;8.00;97.40;;;;;;5026773;28;20193;-92
2022/12/26 08:43:59;;;;;;;96.67;68.37;;;8.00;97.30;;;;;;5023993;28;20181;-93
2022/12/26 08:46:25;;;;;;;97.17;72.60;;;8.00;97.30;;;;;;5023448;28;20177;-93
2022/12/26 08:48:50;;;;;;;96.87;72.17;;;7.90;97.30;;;;;;5021323;28;20548;-92
2022/12/26 08:51:22;;;;;;;92.17;70.77;;;8.00;97.30;;;;;;5023846;28;20185;-92
2022/12/26 08:53:49;;;;;;;99.03;69.83;;;8.00;97.30;;;;;;5026732;28;20184;-92
2022/12/26 08:56:18;;;;;;;97.63;72.90;;;8.00;97.30;;;;;;5023514;28;20192;-92
2022/12/26 08:58:44;;;;;;;95.70;68.83;;;8.00;97.20;;;;;;5022979;28;20644;-92
2022/12/26 09:01:15;;;;;;;97.63;68.43;;;8.10;97.20;;;;;;5021337;28;20181;-92
2022/12/26 09:03:42;;;;;;;96.17;70.13;;;8.10;97.20;;;;;;5021950;28;20216;-93
2022/12/26 09:06:10;;;;;;;94.17;70.53;;;8.10;97.10;;;;;;5022412;28;20683;-93
2022/12/26 09:08:36;;;;;;;91.33;68.73;;;8.20;97.10;;;;;;5022656;28;20213;-93
2022/12/26 09:11:04;;;;;;;77.93;61.53;;;8.30;97.10;;;;;;5019988;28;20181;-92
2022/12/26 09:13:31;;;;;;;87.73;66.20;;;8.30;97.00;;;;;;5019728;28;20632;-92
2022/12/26 09:16:10;;;;;;;84.33;68.77;;;8.30;96.90;;;;;;5019359;28;20201;-93
2022/12/26 09:19:31;;;;;;;92.63;68.57;;;8.30;96.90;;;;;;5023291;28;20312;-93
2022/12/26 09:33:36;;;;;;;76.93;66.83;;;8.40;96.60;;;;;;5021366;28;20161;-92
2022/12/26 09:36:04;;;;;;;75.93;65.70;;;8.40;96.50;;;;;;5196310;22;20232;-93
2022/12/26 09:39:17;;;;;;;72.43;60.40;;;8.40;96.40;;;;;;5022065;28;20188;-92
2022/12/26 10:29:40;;;;;;;58.00;52.77;;;8.80;94.50;;;;;;5022341;28;20574;-92
2022/12/26 10:32:22;;;;;;;57.07;51.87;;;8.80;94.40;;;;;;5024649;28;20180;-92
2022/12/26 10:34:48;;;;;;;53.10;48.23;;;8.90;94.30;;;;;;5019000;28;20200;-92
2022/12/26 10:37:32;;;;;;;58.43;53.37;;;8.90;94.30;;;;;;5021119;28;20177;-93
2022/12/26 10:40:20;;;;;;;44.13;40.20;;;9.00;94.40;;;;;;5020460;28;20174;-92
2022/12/26 10:42:52;;;;;;;49.90;45.13;;;9.00;94.20;;;;;;5020709;28;20647;-92
2022/12/26 10:45:26;;;;;;;49.23;44.50;;;9.00;94.10;;;;;;5021359;28;20204;-92
2022/12/26 10:47:53;;;;;;;53.00;47.77;;;8.90;94.20;;;;;;5020880;28;20232;-92
2022/12/26 10:50:23;;;;;;;47.37;42.70;;;8.90;94.10;;;;;;5019225;28;20296;-92
2022/12/26 10:52:49;;;;;;;45.33;40.93;;;8.80;94.00;;;;;;5018860;28;20173;-91
2022/12/26 10:55:18;;;;;;;47.00;42.63;;;8.80;94.00;;;;;;5017847;28;20440;-92
2022/12/26 10:57:47;;;;;;;51.67;46.67;;;8.80;94.00;;;;;;5021945;28;20242;-92
2022/12/26 11:00:21;;;;;;;47.63;42.70;;;8.80;94.00;;;;;;5019899;28;20249;-92
2022/12/26 11:03:07;;;;;;;51.43;46.10;;;8.80;94.10;;;;;;5019224;28;20200;-91
2022/12/26 11:05:42;;;;;;;46.17;41.77;;;8.80;94.10;;;;;;5017912;28;20566;-92
2022/12/26 11:08:39;;;;;;;48.80;43.67;;;8.80;94.00;;;;;;5027991;28;20153;-92
2022/12/26 11:11:13;;;;;;;34.97;31.43;;;8.80;94.00;;;;;;5020830;28;20185;-93
2022/12/26 11:13:45;;;;;;;43.10;38.67;;;8.80;94.00;;;;;;5022845;28;20188;-91
2022/12/26 11:16:22;;;;;;;44.93;40.43;;;8.80;93.80;;;;;;5017561;28;20243;-91
2022/12/26 11:18:50;;;;;;;44.07;39.50;;;8.90;93.70;;;;;;5019863;28;20165;-91
2022/12/26 11:21:16;;;;;;;40.37;36.27;;;8.90;93.40;;;;;;5012962;28;20272;-91
2022/12/26 11:23:41;;;;;;;38.50;34.50;;;8.90;93.40;;;;;;5016779;28;20209;-90
2022/12/26 11:26:30;;;;;;;40.27;36.43;;;8.90;93.40;;;;;;5015412;28;20208;-90
2022/12/26 11:29:05;;;;;;;38.33;34.83;;;8.90;93.30;;;;;;5017823;28;20236;-91
2022/12/26 11:31:31;;;;;;;37.03;33.43;;;8.90;93.20;;;;;;5016519;28;20551;-91
2022/12/26 11:33:58;;;;;;;38.23;34.27;;;8.90;93.10;;;;;;5017711;28;20256;-90
2022/12/26 11:36:28;;;;;;;33.53;30.43;;;9.00;93.00;;;;;;5026384;28;20197;-92
2022/12/26 11:38:58;;;;;;;36.67;33.03;;;8.90;93.00;;;;;;5029866;28;20201;-92
2022/12/26 11:41:32;;;;;;;37.77;34.07;;;8.90;93.00;;;;;;5032712;28;20216;-92
2022/12/26 11:44:03;;;;;;;38.30;34.60;;;8.90;93.20;;;;;;5031840;28;20196;-91
2022/12/26 11:46:37;;;;;;;37.63;34.00;;;8.90;93.20;;;;;;5029636;28;20173;-91
2022/12/26 11:49:03;;;;;;;35.57;32.07;;;8.90;93.30;;;;;;5030991;28;20189;-91
2022/12/26 11:51:40;;;;;;;35.67;32.13;;;8.80;93.60;;;;;;5029799;28;20662;-92
2022/12/26 11:54:28;;;;;;;33.53;30.43;;;8.80;93.80;;;;;;5027809;28;20207;-91
2022/12/26 11:57:11;;;;;;;32.07;29.20;;;8.80;93.90;;;;;;5010801;28;20220;-91
2022/12/26 11:59:37;;;;;;;31.80;28.73;;;8.90;93.70;;;;;;5018362;28;20260;-91
2022/12/26 12:02:20;;;;;;;38.27;30.13;;;9.00;93.50;;;;;;5023589;28;20240;-92
2022/12/26 12:04:47;;;;;;;32.23;29.40;;;9.00;93.40;;;;;;5024757;28;20703;-92
2022/12/26 12:07:34;;;;;;;32.03;29.03;;;9.00;93.30;;;;;;5025019;28;20670;-91
2022/12/26 12:10:14;;;;;;;30.30;27.50;;;9.00;92.90;;;;;;5023206;28;20216;-91
2022/12/26 12:12:53;;;;;;;33.30;29.90;;;9.00;93.00;;;;;;5019216;28;20256;-90
2022/12/26 12:15:30;;;;;;;32.30;29.13;;;9.00;93.10;;;;;;5022122;28;20200;-90
2022/12/26 12:18:27;;;;;;;29.43;26.80;;;9.10;93.00;;;;;;5026684;28;20172;-91
2022/12/26 12:21:11;;;;;;;32.23;27.73;;;9.10;92.80;;;;;;5028437;28;20168;-92
2022/12/26 12:23:59;;;;;;;31.00;27.93;;;9.10;92.70;;;;;;5027199;28;20185;-90
2022/12/26 12:26:53;;;;;;;29.87;27.30;;;9.00;92.60;;;;;;5028189;28;20196;-92
2022/12/26 12:29:34;;;;;;;30.50;28.00;;;9.10;92.70;;;;;;5032212;28;20197;-92
2022/12/26 12:32:17;;;;;;;30.07;27.47;;;9.00;92.80;;;;;;5028795;28;20252;-92
2022/12/26 12:35:18;;;;;;;27.40;25.13;;;9.00;92.90;;;;;;5030724;28;20216;-92
2022/12/26 12:38:33;;;;;;;24.30;22.13;;;9.00;92.80;;;;;;5028318;28;20182;-92
2022/12/26 12:41:28;;;;;;;24.30;21.63;;;9.10;92.10;;;;;;5009289;28;20180;-89
2022/12/26 12:44:19;;;;;;;22.77;20.97;;;9.10;91.70;;;;;;5035687;28;20150;-92
2022/12/26 12:47:15;;;;;;;20.20;18.73;;;9.10;91.60;;;;;;5032051;28;20233;-92
2022/12/26 12:50:14;;;;;;;21.47;19.60;;;9.30;89.90;;;;;;5028391;28;20205;-92
2022/12/26 12:52:59;;;;;;;22.57;20.57;;;9.30;89.90;;;;;;5025266;28;20173;-91
2022/12/26 12:55:57;;;;;;;19.13;17.17;;;9.20;90.20;;;;;;5027504;28;20197;-92
2022/12/26 12:58:33;;;;;;;14.40;13.50;;;9.00;89.60;;;;;;5029741;28;20169;-92
2022/12/26 13:01:05;;;;;;;14.70;13.60;;;9.00;88.00;;;;;;5032222;28;20168;-91
2022/12/26 13:03:39;;;;;;;13.03;11.70;;;8.90;87.30;;;;;;5026797;28;20162;-90
2022/12/26 13:06:16;;;;;;;13.97;12.87;;;8.90;86.60;;;;;;5025860;28;20193;-92
2022/12/26 13:09:14;;;;;;;15.57;12.20;;;8.80;86.80;;;;;;5030878;28;20533;-91
2022/12/26 13:11:46;;;;;;;11.40;10.50;;;8.80;86.10;;;;;;5029005;28;20169;-90
2022/12/26 13:14:35;;;;;;;15.30;11.63;;;8.70;85.90;;;;;;5035059;28;20190;-92
2022/12/26 13:17:07;;;;;;;14.20;12.70;;;8.50;86.80;;;;;;5034908;28;20146;-91
2022/12/26 13:19:45;;;;;;;15.13;13.90;;;8.30;88.10;;;;;;5035481;28;20162;-92
2022/12/26 13:22:25;;;;;;;16.60;15.03;;;8.00;89.80;;;;;;5033834;28;20160;-92
2022/12/26 13:25:01;;;;;;;15.07;13.97;;;7.80;91.20;;;;;;5034782;28;20201;-92
2022/12/26 13:27:31;;;;;;;18.67;17.13;;;7.80;91.60;;;;;;5025248;28;20201;-91
2022/12/26 13:30:01;;;;;;;17.20;16.03;;;7.60;92.10;;;;;;5021663;28;20205;-91
2022/12/26 13:32:32;;;;;;;17.17;15.47;;;7.50;92.70;;;;;;5033729;28;20180;-92
2022/12/26 13:35:03;;;;;;;17.80;16.43;;;7.30;93.10;;;;;;5037142;28;20224;-92
2022/12/26 13:37:37;;;;;;;21.30;19.53;;;7.30;93.30;;;;;;5036351;28;20169;-93
2022/12/26 13:40:31;;;;;;;23.10;20.63;;;7.30;93.40;;;;;;5036718;28;20177;-92
2022/12/26 13:46:03;;;;;;;25.40;18.07;;;7.30;93.30;;;;;;5035445;28;20200;-92
2022/12/26 13:48:31;;;;;;;22.57;20.17;;;7.20;93.10;;;;;;5030332;28;20169;-92
2022/12/26 13:51:00;;;;;;;22.10;19.53;;;7.20;93.00;;;;;;5037329;28;20212;-93
2022/12/26 13:53:31;;;;;;;25.57;19.37;;;7.20;93.00;;;;;;5037269;28;20169;-92
2022/12/26 13:56:17;;;;;;;21.43;19.27;;;7.20;92.90;;;;;;5036868;28;20201;-92
2022/12/26 13:59:06;;;;;;;20.90;18.90;;;7.10;93.00;;;;;;5038094;28;20180;-92
2022/12/26 14:01:56;;;;;;;20.87;18.70;;;7.00;93.30;;;;;;5038324;28;20232;-92
2022/12/26 14:04:56;;;;;;;24.63;22.27;;;6.90;93.60;;;;;;5033593;28;20254;-92
2022/12/26 14:08:03;;;;;;;20.90;18.90;;;6.80;93.80;;;;;;5036547;28;20172;-92
2022/12/26 14:10:54;;;;;;;22.93;21.00;;;6.70;93.80;;;;;;5032476;28;20212;-91
2022/12/26 14:14:15;;;;;;;22.80;20.60;;;6.70;93.80;;;;;;5036433;28;20172;-91
2022/12/26 14:16:57;;;;;;;22.37;20.23;;;6.70;93.50;;;;;;5159384;22;20256;-92
2022/12/26 14:19:40;;;;;;;22.87;20.67;;;6.60;93.40;;;;;;5168425;22;20292;-92
2022/12/26 14:25:22;;;;;;;22.40;20.50;;;6.60;93.20;;;;;;5251592;22;20216;-92
2022/12/26 14:28:02;;;;;;;26.33;21.10;;;6.60;93.20;;;;;;5038401;28;20199;-92
2022/12/26 14:48:35;;;;;;;23.83;21.77;;;6.40;92.90;;;;;;3375517;26;20222;-91
2022/12/26 14:51:06;;;;;;;23.60;21.43;;;6.30;92.90;;;;;;5040471;28;20192;-92
2022/12/26 14:53:35;;;;;;;30.37;20.60;;;6.30;92.80;;;;;;5038236;28;20248;-91
2022/12/26 14:56:14;;;;;;;22.40;18.70;;;6.20;92.70;;;;;;5412415;23;1127592;-91
2022/12/26 14:58:43;;;;;;;25.83;20.80;;;6.20;92.80;;;;;;5035045;28;20169;-91
2022/12/26 15:01:12;;;;;;;28.03;20.80;;;6.10;92.70;;;;;;5034323;28;20165;-90
2022/12/26 15:04:14;;;;;;;26.80;19.43;;;6.10;92.50;;;;;;5034475;28;20257;-91
2022/12/26 15:07:01;;;;;;;21.87;19.47;;;6.00;92.40;;;;;;5006202;28;20264;-91
2022/12/26 15:10:04;;;;;;;28.50;19.17;;;6.10;92.40;;;;;;5005055;28;20213;-91
2022/12/26 15:12:59;;;;;;;26.30;18.93;;;6.00;92.40;;;;;;5018758;28;20162;-90
2022/12/26 15:15:43;;;;;;;23.00;18.97;;;6.00;92.40;;;;;;5018620;28;20202;-91
2022/12/26 15:18:53;;;;;;;27.43;19.60;;;6.00;92.30;;;;;;5018163;28;20234;-91
2022/12/26 15:21:36;;;;;;;25.00;18.53;;;6.00;92.10;;;;;;5016611;28;20186;-92
2022/12/26 15:24:33;;;;;;;37.87;19.67;;;5.90;91.90;;;;;;5018481;28;20188;-89
2022/12/26 15:27:34;;;;;;;32.30;18.67;;;5.80;91.80;;;;;;5018306;28;20174;-92
2022/12/26 15:30:20;;;;;;;31.77;19.00;;;5.80;91.60;;;;;;5017772;28;20269;-90
2022/12/26 15:32:51;;;;;;;29.90;18.40;;;5.70;91.50;;;;;;5017972;28;20178;-89
2022/12/26 15:35:33;;;;;;;37.67;17.40;;;5.60;91.30;;;;;;5018511;28;20359;-90
2022/12/26 15:38:23;;;;;;;29.93;16.93;;;5.60;91.30;;;;;;5019166;28;20158;-90
2022/12/26 15:41:10;;;;;;;28.23;15.50;;;5.70;91.20;;;;;;5018598;28;20193;-90
2022/12/26 15:44:02;;;;;;;30.93;14.13;;;5.70;90.50;;;;;;5018597;28;20177;-89
2022/12/26 15:46:51;;;;;;;25.03;12.87;;;5.70;89.90;;;;;;5018554;28;20154;-89
2022/12/26 15:49:47;;;;;;;27.60;12.47;;;5.70;89.10;;;;;;5018478;28;20189;-89
2022/12/26 15:52:33;;;;;;;20.43;11.67;;;5.70;88.20;;;;;;5017948;28;20170;-90
2022/12/26 15:55:08;;;;;;;15.70;11.33;;;5.70;87.70;;;;;;5018211;28;20194;-90
2022/12/26 15:58:09;;;;;;;23.23;12.30;;;5.50;87.80;;;;;;5018418;28;20277;-90
2022/12/26 16:00:46;;;;;;;19.17;11.37;;;5.50;87.40;;;;;;5018373;28;20166;-90
2022/12/26 16:18:53;;;;;;;28.53;11.97;;;5.40;86.50;;;;;;5052692;28;20208;-91
2022/12/26 16:24:18;;;;;;;32.20;11.60;;;5.40;86.70;;;;;;5053997;28;20188;-94
2022/12/26 16:26:45;;;;;;;18.13;11.57;;;5.40;86.80;;;;;;5021214;28;20195;-89
2022/12/26 16:29:19;;;;;;;21.07;11.17;;;5.30;87.10;;;;;;5021439;28;20225;-92
2022/12/26 16:31:48;;;;;;;22.90;11.50;;;5.30;87.10;;;;;;5021379;28;20157;-90
2022/12/26 16:34:17;;;;;;;30.57;12.17;;;5.30;87.10;;;;;;5021304;28;20215;-89
2022/12/26 16:36:44;;;;;;;29.40;11.33;;;5.20;87.10;;;;;;5020898;28;20168;-91
2022/12/26 16:39:10;;;;;;;20.93;11.30;;;5.20;86.90;;;;;;5021111;28;20164;-91
2022/12/26 16:41:58;;;;;;;19.97;11.23;;;5.20;86.80;;;;;;5021092;28;20165;-93
2022/12/26 16:44:31;;;;;;;25.80;11.47;;;5.20;86.90;;;;;;5024219;28;20183;-93
2022/12/26 16:47:13;;;;;;;17.67;11.23;;;5.30;86.90;;;;;;5023599;28;20205;-93
2022/12/26 16:49:42;;;;;;;25.90;12.30;;;5.30;86.60;;;;;;5024854;28;20234;-88
2022/12/26 16:52:30;;;;;;;25.53;12.93;;;5.20;86.80;;;;;;5024077;28;20649;-90
2022/12/26 16:54:56;;;;;;;21.73;11.17;;;5.20;86.90;;;;;;5021198;28;20225;-93
2022/12/26 16:57:22;;;;;;;22.37;11.00;;;5.10;86.50;;;;;;5023737;28;20175;-94
2022/12/26 16:59:57;;;;;;;24.13;11.70;;;5.10;86.80;;;;;;5021167;28;20180;-94
2022/12/26 17:02:29;;;;;;;20.80;11.67;;;5.10;87.00;;;;;;5022409;28;20172;-92
2022/12/26 17:05:22;;;;;;;24.97;12.43;;;5.10;86.90;;;;;;5021492;28;20225;-95
2022/12/26 17:07:50;;;;;;;24.33;10.80;;;5.10;86.60;;;;;;5036168;28;20169;-95
2022/12/26 17:46:53;;;;;;;24.93;10.63;;;4.90;86.50;;;;;;5505883;22;20239;-92
2022/12/26 17:49:19;;;;;;;18.97;10.97;;;4.80;86.40;;;;;;5036211;28;20215;-91
2022/12/26 18:59:05;;;;;;;22.80;11.83;;;4.10;89.00;;;;;;5020007;28;20241;-93
2022/12/26 19:01:40;;;;;;;26.03;11.60;;;4.00;89.10;;;;;;5032907;28;20188;-93
2022/12/26 19:04:09;;;;;;;18.70;10.90;;;3.90;89.40;;;;;;5025876;28;20182;-93
2022/12/26 19:06:36;;;;;;;19.77;11.27;;;4.00;89.50;;;;;;5012645;28;20179;-93
2022/12/26 19:09:04;;;;;;;21.77;11.37;;;3.90;89.50;;;;;;5028203;28;20286;-92
2022/12/26 19:11:30;;;;;;;18.57;10.07;;;3.90;89.40;;;;;;5021914;28;20195;-93
2022/12/26 19:14:08;;;;;;;23.33;12.67;;;4.10;89.10;;;;;;5021170;28;20207;-92
2022/12/26 19:21:47;;;;;;;16.70;10.53;;;4.00;88.70;;;;;;5309114;22;20236;-91
2022/12/26 19:24:16;;;;;;;22.53;10.57;;;4.10;88.70;;;;;;5037947;28;20194;-92
2022/12/26 19:26:44;;;;;;;21.57;10.50;;;4.10;88.20;;;;;;5037856;28;20167;-92
2022/12/26 19:29:10;;;;;;;22.63;11.00;;;4.10;88.20;;;;;;5036925;28;20205;-92
2022/12/26 19:31:38;;;;;;;21.50;10.10;;;4.10;88.30;;;;;;5038319;28;20172;-92